Time;durP1;ratioP1;P1;durP2;ratioP2;P2;SDS_P1;SDS_P2;PMS_P1;PMS_P2;Temp;Humidity;BMP_temperature;BMP_pressure;BME280_temperature;BME280_humidity;BME280_pressure;Samples;Min_cycle;Max_cycle;Signal;HPM_P1;HPM_P2
2023/11/12 00:02:24;;;;;;;1.85;0.30;;;;;;;5.80;100.00;100067.22;5091366;28;20109;-69
2023/11/12 00:04:50;;;;;;;1.50;0.47;;;;;;;5.83;100.00;100071.34;5087473;28;20028;-69
2023/11/12 00:07:16;;;;;;;2.03;0.30;;;;;;;5.82;100.00;100052.41;5089129;28;20035;-69
2023/11/12 00:09:42;;;;;;;1.77;0.22;;;;;;;5.83;100.00;100066.16;5091868;28;20372;-69
2023/11/12 00:12:08;;;;;;;1.20;0.30;;;;;;;5.85;100.00;100061.69;5097465;28;20035;-69
2023/11/12 00:14:34;;;;;;;0.85;0.32;;;;;;;5.85;100.00;100059.09;5086438;28;20055;-69
2023/11/12 00:16:59;;;;;;;0.57;0.25;;;;;;;5.90;100.00;100051.84;5097697;28;20070;-68
2023/11/12 00:19:25;;;;;;;0.80;0.30;;;;;;;5.89;100.00;100057.94;5090892;28;20028;-68
2023/11/12 00:21:50;;;;;;;1.67;0.20;;;;;;;5.89;100.00;100065.72;5092975;28;20036;-69
2023/11/12 00:24:17;;;;;;;0.57;0.15;;;;;;;5.97;100.00;100063.31;5088579;28;20410;-69
2023/11/12 00:26:43;;;;;;;0.55;0.30;;;;;;;6.05;100.00;100065.28;5088206;28;20058;-69
2023/11/12 00:29:08;;;;;;;0.82;0.20;;;;;;;6.03;100.00;100062.00;5093209;28;20509;-69
2023/11/12 00:31:34;;;;;;;0.70;0.20;;;;;;;5.91;100.00;100069.00;5095873;28;20044;-69
2023/11/12 00:33:59;;;;;;;1.73;0.30;;;;;;;5.89;100.00;100076.06;5097710;28;20024;-69
2023/11/12 00:36:25;;;;;;;1.00;0.20;;;;;;;5.81;100.00;100075.81;5090266;28;20032;-69
2023/11/12 00:38:51;;;;;;;0.40;0.10;;;;;;;5.75;100.00;100071.13;5087844;28;20028;-69
2023/11/12 00:41:20;;;;;;;1.30;0.32;;;;;;;5.48;100.00;100081.91;5094155;28;20024;-69
2023/11/12 00:43:45;;;;;;;0.70;0.25;;;;;;;5.19;100.00;100071.31;5084578;28;20131;-69
2023/11/12 00:46:11;;;;;;;0.68;0.25;;;;;;;5.18;100.00;100070.47;5094039;28;20152;-69
2023/11/12 00:48:37;;;;;;;0.40;0.10;;;;;;;5.36;100.00;100068.19;5089642;28;20032;-69
2023/11/12 00:51:04;;;;;;;4.57;0.20;;;;;;;5.48;100.00;100080.16;5084469;28;20035;-69
2023/11/12 00:53:30;;;;;;;0.55;0.17;;;;;;;5.51;100.00;100082.50;5091698;28;20036;-69
2023/11/12 00:55:59;;;;;;;2.15;0.30;;;;;;;5.45;100.00;100088.16;5108412;27;20090;-69
2023/11/12 00:58:27;;;;;;;0.60;0.30;;;;;;;5.35;100.00;100082.06;5093471;28;20402;-68
2023/11/12 01:00:53;;;;;;;3.22;0.30;;;;;;;5.32;100.00;100087.47;5091695;28;20035;-68
2023/11/12 01:03:18;;;;;;;1.90;0.35;;;;;;;5.25;100.00;100087.13;5093636;28;20027;-69
2023/11/12 01:05:44;;;;;;;2.10;0.30;;;;;;;5.31;100.00;100093.56;5089658;28;20031;-69
2023/11/12 01:08:10;;;;;;;1.15;0.50;;;;;;;5.41;100.00;100086.75;5092912;28;20036;-69
2023/11/12 01:10:35;;;;;;;1.10;0.40;;;;;;;5.51;100.00;100090.25;5086863;28;20472;-69
2023/11/12 01:13:01;;;;;;;1.17;0.30;;;;;;;5.66;100.00;100080.47;5091334;28;20031;-69
2023/11/12 01:15:29;;;;;;;1.02;0.25;;;;;;;5.72;100.00;100079.94;5086113;28;20471;-69
2023/11/12 01:17:55;;;;;;;3.08;0.30;;;;;;;5.79;100.00;100080.28;5089160;28;20046;-69
2023/11/12 01:20:21;;;;;;;1.35;0.50;;;;;;;5.79;100.00;100077.69;5083576;28;20036;-69
2023/11/12 01:22:47;;;;;;;0.82;0.20;;;;;;;5.80;100.00;100076.75;5081093;28;20054;-69
2023/11/12 01:25:14;;;;;;;1.27;0.30;;;;;;;5.79;100.00;100075.13;5081375;28;20442;-69
2023/11/12 01:27:40;;;;;;;1.95;0.40;;;;;;;5.80;100.00;100072.41;5080935;28;20081;-69
2023/11/12 01:30:07;;;;;;;1.33;0.20;;;;;;;5.85;100.00;100069.44;5081305;28;20032;-68
2023/11/12 01:32:33;;;;;;;1.65;0.20;;;;;;;5.86;100.00;100066.75;5092201;28;20471;-68
2023/11/12 01:34:58;;;;;;;1.75;0.40;;;;;;;5.72;100.00;100071.38;5098609;28;20107;-69
2023/11/12 01:37:24;;;;;;;2.65;0.30;;;;;;;5.81;100.00;100080.97;5099403;28;20074;-69
2023/11/12 01:39:49;;;;;;;0.98;0.10;;;;;;;5.88;100.00;100071.78;5101260;28;20038;-69
2023/11/12 01:42:15;;;;;;;0.77;0.20;;;;;;;5.71;100.00;100070.56;5092120;28;20039;-69
2023/11/12 01:44:42;;;;;;;1.15;0.30;;;;;;;5.68;100.00;100070.78;5089613;28;20034;-69
2023/11/12 01:47:09;;;;;;;1.27;0.25;;;;;;;5.75;100.00;100079.72;5091975;28;20107;-70
2023/11/12 01:49:36;;;;;;;2.55;0.28;;;;;;;5.77;100.00;100077.00;5092268;28;20032;-68
2023/11/12 01:52:06;;;;;;;1.05;0.30;;;;;;;5.66;100.00;100070.13;5090266;28;20024;-69
2023/11/12 01:54:33;;;;;;;1.27;0.40;;;;;;;5.57;100.00;100066.50;5096371;28;20054;-70
2023/11/12 01:57:00;;;;;;;3.90;0.38;;;;;;;5.48;100.00;100059.47;5088400;28;20483;-68
2023/11/12 01:59:30;;;;;;;1.50;0.40;;;;;;;5.48;100.00;100056.06;5092524;28;20138;-68
2023/11/12 02:01:56;;;;;;;1.40;0.40;;;;;;;5.49;100.00;100060.31;5094013;28;20581;-68
2023/11/12 02:04:23;;;;;;;1.25;0.30;;;;;;;5.49;100.00;100058.53;5090475;28;20031;-69
2023/11/12 02:06:48;;;;;;;1.25;0.20;;;;;;;5.56;100.00;100051.94;5088069;28;20027;-68
2023/11/12 02:09:14;;;;;;;2.08;0.20;;;;;;;5.62;100.00;100053.22;5089554;28;20372;-68
2023/11/12 02:11:39;;;;;;;6.88;0.38;;;;;;;5.71;100.00;100046.47;5091457;28;20510;-68
2023/11/12 02:14:08;;;;;;;0.82;0.20;;;;;;;5.70;100.00;100050.00;5098841;28;20036;-68
2023/11/12 02:16:34;;;;;;;1.73;0.30;;;;;;;5.72;100.00;100046.34;5097055;28;20024;-68
2023/11/12 02:19:00;;;;;;;1.05;0.43;;;;;;;5.67;100.00;100057.06;5089377;28;20032;-68
2023/11/12 02:21:31;;;;;;;1.02;0.40;;;;;;;5.55;100.00;100054.66;5088685;28;20495;-69
2023/11/12 02:23:57;;;;;;;1.95;0.32;;;;;;;5.39;100.00;100052.44;5092240;28;20467;-68
2023/11/12 02:26:23;;;;;;;1.35;0.47;;;;;;;5.38;100.00;100060.31;5087912;28;20047;-69
2023/11/12 02:28:48;;;;;;;1.63;0.40;;;;;;;5.37;100.00;100050.94;5092427;28;20024;-68
2023/11/12 02:31:14;;;;;;;3.47;0.50;;;;;;;5.37;100.00;100059.50;5087942;28;20087;-68
2023/11/12 02:33:40;;;;;;;1.65;0.60;;;;;;;5.33;100.00;100052.94;5094565;28;20043;-68
2023/11/12 02:36:07;;;;;;;0.40;0.28;;;;;;;5.38;100.00;100048.22;5090522;28;20042;-68
2023/11/12 02:38:33;;;;;;;1.25;0.40;;;;;;;5.45;100.00;100041.63;5094480;28;20402;-68
2023/11/12 02:41:02;;;;;;;2.03;0.60;;;;;;;5.43;100.00;100043.53;5097261;28;20016;-68
2023/11/12 02:43:28;;;;;;;1.48;0.43;;;;;;;5.38;100.00;100050.81;5095914;28;20035;-68
2023/11/12 02:45:54;;;;;;;2.15;0.40;;;;;;;5.35;100.00;100051.06;5092197;28;20107;-69
2023/11/12 02:48:20;;;;;;;1.45;0.57;;;;;;;5.31;100.00;100049.66;5093405;28;20123;-68
2023/11/12 02:50:46;;;;;;;2.50;0.47;;;;;;;5.27;100.00;100061.16;5098036;28;20155;-68
2023/11/12 02:53:11;;;;;;;1.65;0.30;;;;;;;5.25;100.00;100066.44;5105775;28;20410;-68
2023/11/12 02:55:37;;;;;;;0.77;0.30;;;;;;;5.27;100.00;100063.75;5092818;28;20039;-68
2023/11/12 02:58:03;;;;;;;1.40;0.30;;;;;;;5.28;100.00;100066.22;5095242;27;20042;-68
2023/11/12 03:00:29;;;;;;;1.58;0.30;;;;;;;5.32;100.00;100061.63;5099448;28;20063;-68
2023/11/12 03:03:00;;;;;;;1.60;0.30;;;;;;;5.34;100.00;100062.31;5102135;28;20487;-69
2023/11/12 03:05:26;;;;;;;0.88;0.20;;;;;;;5.31;100.00;100060.81;5098921;28;20031;-68
2023/11/12 03:07:52;;;;;;;3.00;0.50;;;;;;;5.32;100.00;100065.03;5095601;28;20032;-68
2023/11/12 03:10:18;;;;;;;1.45;0.25;;;;;;;5.35;100.00;100063.97;5095640;28;20552;-68
2023/11/12 03:12:44;;;;;;;0.80;0.20;;;;;;;5.38;100.00;100068.91;5097389;28;20493;-69
2023/11/12 03:15:11;;;;;;;1.65;0.30;;;;;;;5.36;100.00;100064.78;5093446;28;20035;-69
2023/11/12 03:17:37;;;;;;;1.00;0.30;;;;;;;5.40;100.00;100059.25;5097377;28;20047;-68
2023/11/12 03:20:04;;;;;;;1.38;0.20;;;;;;;5.44;100.00;100058.09;5101188;28;20031;-69
2023/11/12 03:22:33;;;;;;;1.35;0.20;;;;;;;5.47;100.00;100055.25;5098541;28;20059;-68
2023/11/12 03:25:04;;;;;;;0.90;0.22;;;;;;;5.49;100.00;100052.56;5110384;28;20058;-68
2023/11/12 03:27:31;;;;;;;0.73;0.22;;;;;;;5.47;100.00;100047.50;5101473;28;20031;-68
2023/11/12 03:29:56;;;;;;;1.25;0.40;;;;;;;5.46;100.00;100052.78;5095372;28;20024;-68
2023/11/12 03:32:22;;;;;;;3.83;0.40;;;;;;;5.46;100.00;100047.63;5102469;28;20097;-68
2023/11/12 03:34:53;;;;;;;1.13;0.30;;;;;;;5.42;100.00;100047.03;5105399;28;20067;-68
2023/11/12 03:37:22;;;;;;;0.70;0.28;;;;;;;5.38;100.00;100040.47;5102488;28;20104;-68
2023/11/12 03:39:48;;;;;;;1.25;0.30;;;;;;;5.36;100.00;100033.78;5086773;28;20036;-68
2023/11/12 03:42:15;;;;;;;1.65;0.20;;;;;;;5.25;100.00;100040.63;5090957;28;20598;-69
2023/11/12 03:44:42;;;;;;;0.77;0.20;;;;;;;5.16;100.00;100043.13;5091633;28;20123;-68
2023/11/12 03:47:07;;;;;;;1.50;0.20;;;;;;;5.15;100.00;100044.88;5090904;28;20032;-68
2023/11/12 03:49:33;;;;;;;1.00;0.30;;;;;;;5.17;100.00;100037.03;5089640;28;20035;-68
2023/11/12 03:51:58;;;;;;;1.10;0.40;;;;;;;5.20;100.00;100044.53;5089849;28;20036;-69
2023/11/12 03:54:24;;;;;;;0.90;0.30;;;;;;;5.17;100.00;100043.00;5091384;28;20032;-68
2023/11/12 03:56:49;;;;;;;1.05;0.28;;;;;;;5.15;100.00;100036.31;5094457;28;20027;-68
2023/11/12 03:59:15;;;;;;;0.90;0.30;;;;;;;5.14;100.00;100047.59;5102589;28;20024;-68
2023/11/12 04:01:40;;;;;;;0.57;0.20;;;;;;;5.16;100.00;100048.28;5091670;28;20065;-68
2023/11/12 04:04:06;;;;;;;0.88;0.40;;;;;;;5.15;100.00;100046.66;5100217;28;20540;-68
2023/11/12 04:06:32;;;;;;;2.13;0.30;;;;;;;5.10;100.00;100046.19;5094535;28;20028;-68
2023/11/12 04:08:57;;;;;;;0.63;0.20;;;;;;;5.12;100.00;100052.06;5100226;28;20356;-68
2023/11/12 04:11:23;;;;;;;1.83;0.32;;;;;;;5.17;100.00;100047.34;5100657;28;20123;-68
2023/11/12 04:13:48;;;;;;;0.82;0.20;;;;;;;5.20;100.00;100049.69;5099590;28;20028;-68
2023/11/12 04:16:14;;;;;;;1.52;0.30;;;;;;;5.21;100.00;100052.13;5097810;28;20496;-68
2023/11/12 04:18:39;;;;;;;2.92;0.40;;;;;;;5.22;100.00;100048.59;5086956;28;20526;-68
2023/11/12 04:21:05;;;;;;;2.00;0.35;;;;;;;5.22;100.00;100040.03;5052123;28;1174612;-68
2023/11/12 04:23:31;;;;;;;1.13;0.30;;;;;;;5.24;100.00;100044.16;5100172;28;20024;-68
2023/11/12 04:25:57;;;;;;;5.53;0.20;;;;;;;5.24;100.00;100044.16;5094637;28;20540;-68
2023/11/12 04:28:26;;;;;;;1.98;0.20;;;;;;;5.23;100.00;100028.78;5093424;28;20035;-68
2023/11/12 04:30:52;;;;;;;1.08;0.10;;;;;;;5.22;100.00;100027.13;5088199;28;20094;-69
2023/11/12 04:33:19;;;;;;;1.00;0.30;;;;;;;5.24;100.00;100027.81;5097805;28;20040;-68
2023/11/12 04:35:47;;;;;;;0.95;0.20;;;;;;;5.28;100.00;100036.97;5093645;28;20090;-68
2023/11/12 04:38:12;;;;;;;0.52;0.20;;;;;;;5.30;100.00;100029.94;5099915;28;20053;-69
2023/11/12 04:40:39;;;;;;;0.50;0.10;;;;;;;5.30;100.00;100035.09;5086227;28;20032;-69
2023/11/12 04:43:05;;;;;;;2.20;0.20;;;;;;;5.35;100.00;100038.13;5087889;28;20475;-68
2023/11/12 04:45:30;;;;;;;0.47;0.10;;;;;;;5.36;100.00;100031.22;5088607;28;20032;-68
2023/11/12 04:47:56;;;;;;;0.75;0.20;;;;;;;5.29;100.00;100031.69;5089650;28;20426;-68
2023/11/12 04:50:21;;;;;;;0.65;0.10;;;;;;;5.26;100.00;100041.44;5092693;28;20067;-68
2023/11/12 04:52:47;;;;;;;1.50;0.22;;;;;;;5.28;100.00;100030.03;5088196;28;20536;-68
2023/11/12 04:55:12;;;;;;;0.68;0.20;;;;;;;5.29;100.00;100030.88;5092191;28;20032;-68
2023/11/12 04:57:38;;;;;;;2.05;0.10;;;;;;;5.35;100.00;100020.06;5092469;28;20039;-68
2023/11/12 05:00:06;;;;;;;1.13;0.10;;;;;;;5.38;100.00;100019.81;5088071;28;20024;-68
2023/11/12 05:02:32;;;;;;;1.58;0.20;;;;;;;5.36;100.00;100019.13;5088684;28;20028;-68
2023/11/12 05:04:58;;;;;;;0.85;0.20;;;;;;;5.38;100.00;100019.00;5093628;28;20038;-68
2023/11/12 05:07:23;;;;;;;2.08;0.30;;;;;;;5.44;100.00;100027.06;5090270;28;20760;-68
2023/11/12 05:09:49;;;;;;;1.23;0.20;;;;;;;5.52;100.00;100022.13;5087908;28;20039;-68
2023/11/12 05:12:15;;;;;;;1.55;0.20;;;;;;;5.51;100.00;100017.06;5083495;28;20076;-68
2023/11/12 05:14:40;;;;;;;1.48;0.40;;;;;;;5.49;100.00;100022.38;5091954;28;20031;-68
2023/11/12 05:17:05;;;;;;;1.38;0.20;;;;;;;5.51;100.00;100019.66;5090934;28;20391;-68
2023/11/12 05:19:31;;;;;;;1.30;0.30;;;;;;;5.45;100.00;100015.81;5089708;28;20035;-68
2023/11/12 05:21:57;;;;;;;3.25;0.40;;;;;;;5.43;100.00;100020.28;5087542;28;20499;-68
2023/11/12 05:24:22;;;;;;;2.72;0.40;;;;;;;5.41;100.00;100004.06;5106667;28;20053;-68
2023/11/12 05:26:48;;;;;;;2.50;0.57;;;;;;;5.36;100.00;100013.13;5094884;28;20054;-68
2023/11/12 05:29:13;;;;;;;3.10;0.30;;;;;;;5.35;100.00;100001.97;5106776;28;20026;-68
2023/11/12 05:31:38;;;;;;;2.60;0.40;;;;;;;5.35;100.00;100009.72;5106037;28;20024;-68
2023/11/12 05:34:04;;;;;;;2.60;0.20;;;;;;;5.32;100.00;100020.28;5096749;28;20031;-68
2023/11/12 05:36:29;;;;;;;2.20;0.30;;;;;;;5.31;100.00;100011.72;5108486;28;20531;-68
2023/11/12 05:38:55;;;;;;;0.80;0.20;;;;;;;5.29;100.00;100010.19;5100028;28;20028;-68
2023/11/12 05:41:21;;;;;;;1.55;0.32;;;;;;;5.28;100.00;100004.22;5086875;28;20055;-68
2023/11/12 05:43:47;;;;;;;1.02;0.47;;;;;;;5.29;100.00;99999.88;5087287;28;20383;-68
2023/11/12 05:46:15;;;;;;;1.17;0.30;;;;;;;5.32;100.00;100005.63;5092227;28;20020;-68
2023/11/12 05:48:40;;;;;;;1.17;0.30;;;;;;;5.32;100.00;99995.28;5095634;28;20048;-68
2023/11/12 05:51:06;;;;;;;0.85;0.30;;;;;;;5.31;100.00;99998.00;5086156;28;20106;-68
2023/11/12 05:53:32;;;;;;;1.50;0.30;;;;;;;5.32;100.00;99995.28;5088657;28;20497;-68
2023/11/12 05:55:57;;;;;;;0.73;0.20;;;;;;;5.36;100.00;99993.28;5090661;28;20093;-68
2023/11/12 05:58:23;;;;;;;1.75;0.40;;;;;;;5.45;100.00;99989.13;5088742;28;20360;-68
2023/11/12 06:00:49;;;;;;;1.75;0.10;;;;;;;5.48;100.00;99989.72;5085093;28;20034;-68
2023/11/12 06:03:14;;;;;;;1.20;0.20;;;;;;;5.47;100.00;99990.66;5091698;28;20608;-68
2023/11/12 06:05:40;;;;;;;1.10;0.43;;;;;;;5.43;100.00;99991.84;5083032;28;20036;-68
2023/11/12 06:08:05;;;;;;;0.40;0.15;;;;;;;5.38;100.00;99996.56;5089496;28;20035;-68
2023/11/12 06:10:31;;;;;;;0.82;0.10;;;;;;;5.36;100.00;100000.22;5089884;28;20028;-68
2023/11/12 06:12:57;;;;;;;1.05;0.20;;;;;;;5.32;100.00;99999.63;5091827;28;20028;-68
2023/11/12 06:15:26;;;;;;;0.20;0.03;;;;;;;5.30;100.00;100004.09;5092324;28;20035;-68
2023/11/12 06:17:54;;;;;;;0.95;0.20;;;;;;;5.35;100.00;100009.72;5090633;28;20032;-68
2023/11/12 06:20:20;;;;;;;0.93;0.10;;;;;;;5.35;100.00;100014.88;5090783;28;20047;-68
2023/11/12 06:22:45;;;;;;;1.15;0.20;;;;;;;5.36;100.00;100013.94;5086933;28;20052;-68
2023/11/12 06:25:11;;;;;;;0.50;0.10;;;;;;;5.40;100.00;100017.09;5091812;28;20028;-68
2023/11/12 06:27:38;;;;;;;0.30;0.10;;;;;;;5.43;100.00;100020.28;5093869;28;20039;-68
2023/11/12 06:30:04;;;;;;;1.23;0.13;;;;;;;5.45;100.00;100033.88;5090787;28;20035;-68
2023/11/12 06:32:30;;;;;;;0.70;0.20;;;;;;;5.48;100.00;100036.22;5086756;28;20051;-68
2023/11/12 06:34:55;;;;;;;0.45;0.13;;;;;;;5.53;100.00;100044.44;5085124;28;20035;-68
2023/11/12 06:37:21;;;;;;;2.05;0.20;;;;;;;5.59;100.00;100038.78;5094754;28;20050;-68
2023/11/12 06:39:46;;;;;;;2.63;0.15;;;;;;;5.65;100.00;100034.88;5089428;28;20060;-68
2023/11/12 06:42:11;;;;;;;1.98;0.30;;;;;;;5.75;100.00;100035.75;5096746;28;20075;-68
2023/11/12 06:44:38;;;;;;;0.40;0.10;;;;;;;5.83;100.00;100042.91;5089452;28;20506;-68
2023/11/12 06:47:04;;;;;;;0.20;0.10;;;;;;;5.84;100.00;100047.13;5091202;28;20060;-68
2023/11/12 06:49:31;;;;;;;0.85;0.10;;;;;;;5.88;100.00;100056.28;5090581;28;20557;-68
2023/11/12 06:51:57;;;;;;;1.33;0.20;;;;;;;5.89;100.00;100055.38;5088880;28;20028;-68
2023/11/12 06:54:23;;;;;;;2.95;0.20;;;;;;;5.95;100.00;100055.69;5090703;28;20503;-68
2023/11/12 06:56:49;;;;;;;0.55;0.10;;;;;;;6.04;100.00;100054.13;5091972;28;20028;-68
2023/11/12 06:59:14;;;;;;;0.38;0.10;;;;;;;6.14;99.52;100055.03;5088760;28;20024;-68
2023/11/12 07:01:40;;;;;;;0.70;0.20;;;;;;;6.21;100.00;100063.06;5087486;28;20020;-68
2023/11/12 07:04:06;;;;;;;0.45;0.20;;;;;;;6.19;98.89;100063.19;5088208;28;20122;-69
2023/11/12 07:06:32;;;;;;;0.95;0.10;;;;;;;6.21;99.58;100063.88;5086796;28;20020;-68
2023/11/12 07:08:58;;;;;;;1.38;0.20;;;;;;;6.26;99.60;100069.50;5080720;28;20545;-68
2023/11/12 07:11:23;;;;;;;0.45;0.10;;;;;;;6.27;99.62;100068.56;5088678;28;20040;-68
2023/11/12 07:13:49;;;;;;;0.95;0.20;;;;;;;6.26;98.75;100074.69;5085123;28;20036;-68
2023/11/12 07:16:18;;;;;;;0.25;0.05;;;;;;;6.23;99.04;100076.69;5094593;28;20031;-68
2023/11/12 07:18:46;;;;;;;0.80;0.30;;;;;;;6.21;99.72;100082.00;5091263;28;20123;-68
2023/11/12 07:21:12;;;;;;;0.35;0.10;;;;;;;6.24;100.00;100086.91;5099873;28;20020;-68
2023/11/12 07:23:38;;;;;;;1.23;0.30;;;;;;;6.31;100.00;100082.88;5107224;28;20042;-68
2023/11/12 07:26:04;;;;;;;0.65;0.13;;;;;;;6.40;100.00;100083.91;5094792;28;20036;-68
2023/11/12 07:28:30;;;;;;;0.80;0.17;;;;;;;6.46;98.54;100087.75;5102354;28;20606;-68
2023/11/12 07:30:55;;;;;;;0.93;0.28;;;;;;;6.48;100.00;100088.44;5103511;28;20036;-69
2023/11/12 07:33:21;;;;;;;0.47;0.13;;;;;;;6.45;99.19;100084.34;5094854;28;20039;-69
2023/11/12 07:35:48;;;;;;;0.80;0.20;;;;;;;6.45;99.50;100102.44;5093091;28;20115;-69
2023/11/12 07:38:14;;;;;;;0.40;0.20;;;;;;;6.45;99.19;100099.03;5096758;28;20467;-69
2023/11/12 07:40:41;;;;;;;5.50;0.17;;;;;;;6.46;100.00;100095.50;5091567;28;20035;-68
2023/11/12 07:43:07;;;;;;;3.92;0.20;;;;;;;6.49;100.00;100097.84;5090941;28;20035;-69
2023/11/12 07:45:33;;;;;;;0.30;0.10;;;;;;;6.47;99.94;100100.56;5090914;28;20028;-68
2023/11/12 07:47:59;;;;;;;1.23;0.20;;;;;;;6.46;98.82;100101.50;5090214;28;20103;-69
2023/11/12 07:50:25;;;;;;;0.63;0.10;;;;;;;6.49;99.76;100101.25;5091649;28;20133;-69
2023/11/12 07:52:50;;;;;;;2.03;0.10;;;;;;;6.47;99.69;100105.75;5095239;28;20383;-69
2023/11/12 07:55:16;;;;;;;1.27;0.20;;;;;;;6.44;99.97;100100.81;5093477;28;20060;-69
2023/11/12 07:57:42;;;;;;;0.57;0.10;;;;;;;6.46;100.00;100108.44;5093879;28;20028;-68
2023/11/12 08:00:11;;;;;;;2.08;0.20;;;;;;;6.53;100.00;100105.22;5088828;28;20089;-68
2023/11/12 08:02:39;;;;;;;1.35;0.10;;;;;;;6.65;99.30;100098.19;5083733;28;20028;-68
2023/11/12 08:05:07;;;;;;;1.08;0.20;;;;;;;6.76;99.09;100100.69;5097379;28;20077;-69
2023/11/12 08:07:33;;;;;;;0.77;0.20;;;;;;;6.80;98.13;100101.28;5078777;28;20170;-69
2023/11/12 08:09:58;;;;;;;0.95;0.10;;;;;;;6.89;97.52;100103.91;5086102;28;20429;-69
2023/11/12 08:12:24;;;;;;;0.50;0.20;;;;;;;6.99;97.06;100093.59;5087042;28;20039;-68
2023/11/12 08:14:49;;;;;;;0.32;0.10;;;;;;;7.07;96.06;100100.72;5078469;28;20028;-68
2023/11/12 08:17:15;;;;;;;1.02;0.20;;;;;;;7.11;96.52;100096.88;5100658;27;20349;-68
2023/11/12 08:19:40;;;;;;;0.60;0.10;;;;;;;7.15;95.76;100087.91;5085010;28;20406;-68
2023/11/12 08:22:06;;;;;;;0.63;0.10;;;;;;;7.18;96.34;100095.41;5087087;28;20044;-68
2023/11/12 08:24:31;;;;;;;0.77;0.20;;;;;;;7.20;96.13;100090.91;5084794;28;20039;-69
2023/11/12 08:26:57;;;;;;;0.55;0.20;;;;;;;7.30;96.48;100090.00;5089634;28;20059;-69
2023/11/12 08:29:23;;;;;;;0.70;0.10;;;;;;;7.41;95.12;100088.25;5085563;28;20027;-69
2023/11/12 08:31:48;;;;;;;1.23;0.13;;;;;;;7.52;95.69;100090.75;5087777;28;20452;-69
2023/11/12 08:34:13;;;;;;;0.63;0.10;;;;;;;7.59;94.90;100097.81;5090771;28;20053;-68
2023/11/12 08:36:39;;;;;;;1.30;0.20;;;;;;;7.66;95.81;100098.09;5089270;28;20039;-68
2023/11/12 08:39:05;;;;;;;0.40;0.17;;;;;;;7.70;95.69;100090.88;5093908;28;20032;-68
2023/11/12 08:41:31;;;;;;;1.15;0.20;;;;;;;7.73;95.56;100088.03;5097528;28;20081;-68
2023/11/12 08:43:57;;;;;;;1.40;0.20;;;;;;;7.75;93.95;100083.50;5088774;28;20109;-69
2023/11/12 08:46:23;;;;;;;1.33;0.22;;;;;;;7.80;95.44;100094.31;5087474;28;20123;-69
2023/11/12 08:48:49;;;;;;;1.02;0.20;;;;;;;7.83;94.64;100084.47;5088702;28;20448;-69
2023/11/12 08:51:14;;;;;;;1.98;0.20;;;;;;;7.81;93.64;100088.97;5090541;28;20032;-69
2023/11/12 08:53:40;;;;;;;1.17;0.30;;;;;;;7.82;95.15;100092.41;5087190;28;20967;-68
2023/11/12 08:56:07;;;;;;;3.88;0.60;;;;;;;7.80;94.62;100089.94;5091017;28;20578;-69
2023/11/12 08:58:32;;;;;;;1.27;0.30;;;;;;;7.82;94.79;100092.41;5088519;28;20484;-69
2023/11/12 09:00:58;;;;;;;1.98;0.45;;;;;;;7.87;94.92;100095.41;5088772;28;20062;-69
2023/11/12 09:03:23;;;;;;;2.50;0.65;;;;;;;7.93;93.68;100100.06;5089836;28;20035;-68
2023/11/12 09:05:49;;;;;;;1.80;0.35;;;;;;;8.01;94.87;100105.38;5089238;28;20031;-70
2023/11/12 09:08:15;;;;;;;2.38;0.30;;;;;;;8.03;94.30;100106.06;5089415;28;20032;-67
2023/11/12 09:10:41;;;;;;;1.42;0.20;;;;;;;8.01;93.36;100105.38;5089413;28;20028;-67
2023/11/12 09:13:08;;;;;;;2.03;0.43;;;;;;;7.99;93.42;100109.88;5090002;28;20038;-67
2023/11/12 09:15:33;;;;;;;2.15;0.10;;;;;;;8.00;92.69;100114.13;5087000;28;20110;-67
2023/11/12 09:17:59;;;;;;;1.38;0.10;;;;;;;8.03;93.54;100123.41;5091370;28;20032;-68
2023/11/12 09:20:24;;;;;;;0.98;0.10;;;;;;;8.01;92.55;100131.31;5096093;28;20162;-68
2023/11/12 09:22:50;;;;;;;1.75;0.20;;;;;;;8.02;94.30;100137.34;5089746;28;20040;-68
2023/11/12 09:25:16;;;;;;;2.42;0.30;;;;;;;8.02;92.98;100145.94;5091869;28;20024;-67
2023/11/12 09:27:41;;;;;;;0.60;0.30;;;;;;;8.04;93.47;100150.97;5096202;28;20036;-72
2023/11/12 09:30:10;;;;;;;1.35;0.22;;;;;;;8.07;94.92;100148.09;5088724;28;20016;-68
2023/11/12 09:32:36;;;;;;;1.75;0.30;;;;;;;8.09;95.16;100151.38;5086882;28;20141;-67
2023/11/12 09:35:04;;;;;;;1.85;0.30;;;;;;;8.06;92.90;100154.25;5085792;28;20016;-68
2023/11/12 09:37:29;;;;;;;1.95;0.30;;;;;;;8.07;94.37;100159.28;5087022;28;20036;-68
2023/11/12 09:39:55;;;;;;;4.55;0.55;;;;;;;8.10;94.31;100153.84;5095862;28;20028;-69
2023/11/12 09:42:25;;;;;;;0.88;0.20;;;;;;;8.06;91.93;100155.06;5090751;28;20475;-68
2023/11/12 09:44:53;;;;;;;0.63;0.10;;;;;;;8.04;92.61;100144.00;5088637;28;20048;-68
2023/11/12 09:47:57;;;;;;;0.32;0.10;;;;;;;8.06;91.95;100144.69;5090231;28;20463;-68
2023/11/12 09:50:25;;;;;;;0.40;0.10;;;;;;;8.09;92.24;100136.63;5026963;28;20548;-68
2023/11/12 09:52:52;;;;;;;0.60;0.30;;;;;;;8.15;93.67;100130.06;5027548;28;20033;-68
2023/11/12 09:55:20;;;;;;;0.60;0.10;;;;;;;8.20;93.82;100131.31;5027836;28;20048;-68
2023/11/12 09:57:46;;;;;;;0.52;0.10;;;;;;;8.23;92.42;100127.63;5027191;28;20041;-68
2023/11/12 10:00:16;;;;;;;0.30;0.20;;;;;;;8.27;93.31;100122.03;5027601;28;20037;-68
2023/11/12 10:02:44;;;;;;;0.88;0.10;;;;;;;8.36;93.55;100115.22;5026343;28;20552;-68
2023/11/12 10:05:10;;;;;;;0.70;0.17;;;;;;;8.42;92.04;100106.06;5027456;28;20029;-68
2023/11/12 10:07:38;;;;;;;0.40;0.13;;;;;;;8.50;94.03;100108.78;5026402;28;20049;-68
2023/11/12 10:10:26;;;;;;;0.75;0.20;;;;;;;8.55;92.09;100102.19;5028043;28;20104;-68
2023/11/12 10:12:53;;;;;;;3.10;0.30;;;;;;;8.63;92.88;100104.06;5027810;28;20400;-68
2023/11/12 10:15:23;;;;;;;0.90;0.10;;;;;;;8.69;92.53;100103.53;5020289;28;20096;-68
2023/11/12 10:17:51;;;;;;;0.77;0.10;;;;;;;8.74;92.97;100101.31;5026932;28;20043;-68
2023/11/12 10:20:25;;;;;;;0.68;0.20;;;;;;;8.78;92.42;100102.69;5014284;28;20045;-68
2023/11/12 10:22:52;;;;;;;0.40;0.20;;;;;;;8.82;93.45;100101.44;5027241;28;20053;-69
2023/11/12 10:25:44;;;;;;;1.52;0.10;;;;;;;8.83;91.34;100104.84;5026943;28;20030;-68
2023/11/12 10:28:12;;;;;;;1.02;0.30;;;;;;;8.86;92.29;100101.97;5084675;28;20382;-68
2023/11/12 10:30:42;;;;;;;0.60;0.13;;;;;;;8.86;91.84;100104.56;5089630;28;20428;-68
2023/11/12 10:33:15;;;;;;;0.57;0.20;;;;;;;8.89;91.49;100099.09;5090455;28;20123;-68
2023/11/12 10:35:41;;;;;;;0.52;0.20;;;;;;;8.94;93.08;100099.47;5089681;28;20036;-68
2023/11/12 10:38:06;;;;;;;0.55;0.10;;;;;;;8.97;91.33;100096.59;5090306;28;20020;-68
2023/11/12 10:40:31;;;;;;;3.80;0.20;;;;;;;8.99;91.31;100089.44;5089876;28;20032;-68
2023/11/12 10:43:10;;;;;;;0.57;0.20;;;;;;;9.02;90.85;100088.34;5090166;28;20365;-68
2023/11/12 10:45:38;;;;;;;0.88;0.20;;;;;;;9.09;91.23;100087.63;5089445;28;20052;-68
2023/11/12 10:48:04;;;;;;;0.68;0.30;;;;;;;9.11;90.18;100084.88;5090166;28;20034;-69
2023/11/12 10:50:30;;;;;;;0.68;0.22;;;;;;;9.13;92.49;100085.56;5093431;28;20036;-68
2023/11/12 10:52:56;;;;;;;1.15;0.22;;;;;;;9.14;91.59;100075.03;5094003;28;20036;-68
2023/11/12 10:55:25;;;;;;;0.82;0.20;;;;;;;9.15;91.47;100081.84;5092893;28;20089;-69
2023/11/12 10:57:52;;;;;;;1.38;0.10;;;;;;;9.16;91.32;100072.28;5093551;28;20082;-69
2023/11/12 11:00:24;;;;;;;1.25;0.17;;;;;;;9.23;92.55;100075.94;5093727;28;20016;-69
2023/11/12 11:02:50;;;;;;;4.10;0.30;;;;;;;9.28;92.40;100074.53;5093110;28;20043;-68
2023/11/12 11:05:19;;;;;;;1.00;0.20;;;;;;;9.41;92.37;100079.41;5093758;28;20044;-69
2023/11/12 11:07:48;;;;;;;0.45;0.10;;;;;;;9.51;90.73;100072.34;5092774;28;20027;-68
2023/11/12 11:10:16;;;;;;;7.07;0.20;;;;;;;9.65;90.76;100069.22;5088793;28;20032;-68
2023/11/12 11:12:42;;;;;;;0.98;0.30;;;;;;;9.81;89.72;100062.56;5106973;28;20410;-68
2023/11/12 11:15:44;;;;;;;1.77;0.20;;;;;;;9.91;89.25;100055.50;5093512;28;20039;-69
2023/11/12 11:18:28;;;;;;;0.82;0.20;;;;;;;10.02;87.15;100052.63;5093392;28;20035;-69
2023/11/12 11:21:02;;;;;;;1.42;0.40;;;;;;;10.14;87.83;100053.22;5090838;28;20446;-69
2023/11/12 11:23:49;;;;;;;0.75;0.20;;;;;;;10.25;86.93;100043.41;5093283;28;20075;-69
2023/11/12 11:26:24;;;;;;;0.70;0.20;;;;;;;10.40;88.26;100045.47;5093152;28;20031;-69
2023/11/12 11:29:09;;;;;;;0.47;0.10;;;;;;;10.50;85.06;100046.97;5092864;28;20395;-69